Impacts METAR Board
IDs:

KHUM - Houma/Terrebonne Arp, LA, US

Updated at: 1000 UTC 16 Aug 2018
Potential Impact None Slight Moderate High
Time 15/22Z 15/23Z 16/00Z 16/01Z 16/02Z 16/03Z 16/04Z 16/05Z 16/06Z 16/07Z 16/08Z 16/09Z 16/10Z
Temp82 84 84 82 80 80 78 77 77 77 77 78 76
Dewpt75 75 79 77 76 77 77 76 76 76 76 77 76
Altim30.01 30.01 30.01 30.02 30.02 30.02 30.03 30.03 30.02 30.03 30.03 30.03 30.04
VIS7 7 7 7 10 7 7 10 7 7 7 10 7
CIG-- -- -- -- -- -- -- -- -- -- 48 34 --
CoverSCTSCTSCTSCTCLRCLRCLRCLRCLRCLROVCBKNCLR
FltCatVFRVFRVFRVFRVFRVFRVFRVFRVFRVFRVFRVFRVFR
WX--------------------------
WDir001200000000000
WSpd0 0 8 0 0 0 0 0 0 0 0 0 0
WGst-- -- -- -- -- -- -- -- -- -- -- -- --
Raw hourly METARs
KHUM 152155Z 00000KT 7SM SCT047 28/24 A3001
KHUM 152255Z 00000KT 7SM SCT050 29/24 A3001
KHUM 152347Z 12008KT 7SM SCT050 29/26 A3001 RMK LAST
KHUM 160055Z AUTO 00000KT 7SM SCT035 28/25 A3002 RMK AO2 T02760249
KHUM 160155Z AUTO 00000KT 10SM CLR 27/25 A3002 RMK AO2 T02670247
KHUM 160255Z AUTO 00000KT 7SM CLR 26/25 A3002 RMK AO2 T02640250
KHUM 160355Z AUTO 00000KT 7SM CLR 26/25 A3003 RMK AO2 T02570248
KHUM 160455Z AUTO 00000KT 10SM CLR 25/25 A3003 RMK AO2 T02500245
KHUM 160555Z AUTO 00000KT 7SM CLR 25/25 A3002 RMK AO2 T02490245 10289 20246 403350236
KHUM 160655Z AUTO 00000KT 7SM CLR 25/25 A3003 RMK AO2 T02490245
KHUM 160755Z AUTO 00000KT 7SM BKN048 BKN060 OVC065 25/25 A3003 RMK AO2 T02520245
KHUM 160855Z AUTO 00000KT 10SM BKN034 BKN043 26/25 A3003 RMK AO2 T02580248
KHUM 160955Z AUTO 00000KT 7SM CLR 25/24 A3004 RMK AO2 T02460242



Page loaded:  10:25 UTC  |   03:25 AM Pacific  |   04:25 AM Mountain  |   05:25 AM Central  |   06:25 AM Eastern

 

ADVISORIES

FORECASTS

FORECASTS

OBSERVATIONS

USER TOOLS

ABOUT US